Time;durP1;ratioP1;P1;durP2;ratioP2;P2;SDS_P1;SDS_P2;PMS_P1;PMS_P2;Temp;Humidity;BMP_temperature;BMP_pressure;BME280_temperature;BME280_humidity;BME280_pressure;Samples;Min_cycle;Max_cycle;Signal;HPM_P1;HPM_P2
2021/06/16 00:00:15;;;;;;;8.30;5.03;;;;;;;;;;4880328;29;20029;-45
2021/06/16 00:02:41;;;;;;;8.35;5.90;;;;;;;;;;4880166;29;20593;-45
2021/06/16 00:05:08;;;;;;;10.82;5.70;;;;;;;;;;4880064;29;20548;-45
2021/06/16 00:07:33;;;;;;;9.10;5.47;;;;;;;;;;4879940;29;20044;-45
2021/06/16 00:09:59;;;;;;;6.45;4.68;;;;;;;;;;4880403;29;20468;-45
2021/06/16 00:12:26;;;;;;;5.80;4.50;;;;;;;;;;4879829;29;20451;-46
2021/06/16 00:14:51;;;;;;;10.02;4.57;;;;;;;;;;4879854;29;20037;-45
2021/06/16 00:17:17;;;;;;;6.05;4.70;;;;;;;;;;4879832;29;20046;-45
2021/06/16 00:19:42;;;;;;;7.53;5.43;;;;;;;;;;4879888;29;20043;-44
2021/06/16 00:22:07;;;;;;;6.97;4.18;;;;;;;;;;4879706;29;20460;-45
2021/06/16 00:24:33;;;;;;;6.03;5.18;;;;;;;;;;4879820;29;20373;-45
2021/06/16 00:26:59;;;;;;;5.35;4.40;;;;;;;;;;4880007;29;20033;-45
2021/06/16 00:29:24;;;;;;;9.07;5.15;;;;;;;;;;4879884;29;20387;-45
2021/06/16 00:31:50;;;;;;;7.47;5.03;;;;;;;;;;4879608;29;20021;-45
2021/06/16 00:34:15;;;;;;;10.27;4.88;;;;;;;;;;4878302;29;20033;-44
2021/06/16 00:36:42;;;;;;;8.38;5.32;;;;;;;;;;4879860;29;20079;-45
2021/06/16 00:39:08;;;;;;;9.55;5.05;;;;;;;;;;4879251;29;20045;-45
2021/06/16 00:41:33;;;;;;;8.60;5.72;;;;;;;;;;4879508;29;20033;-45
2021/06/16 00:43:59;;;;;;;8.52;5.53;;;;;;;;;;4878867;29;20404;-46
2021/06/16 00:46:24;;;;;;;5.78;4.22;;;;;;;;;;4879328;29;20032;-46
2021/06/16 00:48:49;;;;;;;5.70;4.57;;;;;;;;;;4879392;29;20032;-45
2021/06/16 00:51:15;;;;;;;6.40;4.95;;;;;;;;;;4879063;29;20027;-44
2021/06/16 00:53:40;;;;;;;5.55;4.50;;;;;;;;;;4879627;29;20234;-45
2021/06/16 00:56:05;;;;;;;15.02;4.68;;;;;;;;;;4879049;29;20021;-46
2021/06/16 00:58:31;;;;;;;11.98;5.95;;;;;;;;;;4879118;29;20096;-45
2021/06/16 01:01:07;;;;;;;5.43;4.65;;;;;;;;;;4877964;29;20025;-45
2021/06/16 01:03:34;;;;;;;6.47;4.28;;;;;;;;;;4879061;29;20036;-45
2021/06/16 01:06:15;;;;;;;9.70;4.97;;;;;;;;;;4879428;29;20424;-45
2021/06/16 01:08:45;;;;;;;8.73;5.07;;;;;;;;;;4879095;29;20037;-45
2021/06/16 01:11:11;;;;;;;5.65;4.65;;;;;;;;;;4878871;29;20532;-45
2021/06/16 01:13:48;;;;;;;6.43;5.00;;;;;;;;;;4879247;29;20037;-45
2021/06/16 01:16:19;;;;;;;10.57;5.28;;;;;;;;;;4878907;29;20045;-44
2021/06/16 01:18:51;;;;;;;8.13;4.97;;;;;;;;;;4878774;29;20041;-45
2021/06/16 01:21:16;;;;;;;6.03;5.05;;;;;;;;;;4879086;29;20059;-45
2021/06/16 01:24:01;;;;;;;5.70;4.68;;;;;;;;;;4879101;29;20133;-45
2021/06/16 01:26:38;;;;;;;6.00;4.43;;;;;;;;;;4878679;29;20516;-45
2021/06/16 01:29:07;;;;;;;5.57;4.95;;;;;;;;;;4879066;29;20029;-45
2021/06/16 01:31:32;;;;;;;5.15;4.63;;;;;;;;;;4878743;29;20539;-44
2021/06/16 01:33:58;;;;;;;8.68;5.30;;;;;;;;;;4878642;29;20120;-44
2021/06/16 01:36:25;;;;;;;5.75;4.57;;;;;;;;;;4878950;29;20035;-45
2021/06/16 01:38:50;;;;;;;6.43;4.88;;;;;;;;;;4877243;29;20413;-45
2021/06/16 01:41:16;;;;;;;8.02;5.68;;;;;;;;;;4878541;29;20021;-45
2021/06/16 01:43:42;;;;;;;7.38;5.22;;;;;;;;;;4878593;29;20060;-44
2021/06/16 01:46:09;;;;;;;6.07;5.32;;;;;;;;;;4878510;29;20131;-45
2021/06/16 01:48:34;;;;;;;12.88;5.43;;;;;;;;;;4878702;29;20496;-45
2021/06/16 01:51:00;;;;;;;12.35;5.68;;;;;;;;;;4878537;29;20025;-45
2021/06/16 01:53:26;;;;;;;7.70;5.00;;;;;;;;;;4878464;29;20112;-46
2021/06/16 01:55:52;;;;;;;7.95;5.13;;;;;;;;;;4878726;29;20093;-46
2021/06/16 01:58:17;;;;;;;6.78;5.05;;;;;;;;;;4881033;29;20049;-45
2021/06/16 02:00:43;;;;;;;6.28;4.32;;;;;;;;;;4882314;29;20017;-45
2021/06/16 02:03:09;;;;;;;16.70;5.13;;;;;;;;;;4882229;29;20032;-45
2021/06/16 02:05:35;;;;;;;7.53;5.05;;;;;;;;;;4881309;29;20108;-45
2021/06/16 02:08:02;;;;;;;8.13;5.57;;;;;;;;;;4882421;29;20037;-45
2021/06/16 02:10:29;;;;;;;5.63;4.80;;;;;;;;;;4882063;29;20025;-45
2021/06/16 02:12:57;;;;;;;8.60;5.20;;;;;;;;;;4882441;29;20092;-45
2021/06/16 02:15:24;;;;;;;9.35;4.85;;;;;;;;;;4882276;29;20023;-45
2021/06/16 02:17:52;;;;;;;9.57;5.25;;;;;;;;;;4882007;29;20033;-44
2021/06/16 02:20:21;;;;;;;7.65;5.32;;;;;;;;;;4881885;29;20021;-45
2021/06/16 02:22:47;;;;;;;6.93;4.68;;;;;;;;;;4881890;29;20068;-45
2021/06/16 02:25:13;;;;;;;9.20;5.07;;;;;;;;;;4880677;29;20043;-45
2021/06/16 02:27:38;;;;;;;6.47;5.30;;;;;;;;;;4881974;29;20025;-44
2021/06/16 02:30:05;;;;;;;9.55;5.28;;;;;;;;;;4882043;29;20021;-45
2021/06/16 02:32:30;;;;;;;10.45;5.18;;;;;;;;;;4881780;29;20039;-44
2021/06/16 02:34:57;;;;;;;8.23;5.15;;;;;;;;;;4880802;29;20028;-45
2021/06/16 02:37:23;;;;;;;6.90;4.72;;;;;;;;;;4881594;29;20037;-45
2021/06/16 02:39:53;;;;;;;5.15;4.30;;;;;;;;;;4881776;29;20109;-45
2021/06/16 02:42:18;;;;;;;7.13;5.78;;;;;;;;;;4880290;29;20056;-45
2021/06/16 02:44:44;;;;;;;8.93;4.70;;;;;;;;;;4881549;29;20460;-45
2021/06/16 02:47:10;;;;;;;6.38;5.57;;;;;;;;;;4881465;29;20436;-45
2021/06/16 02:49:37;;;;;;;6.95;5.68;;;;;;;;;;4881546;29;20021;-45
2021/06/16 02:52:04;;;;;;;6.15;5.05;;;;;;;;;;4881558;29;20128;-45
2021/06/16 02:54:30;;;;;;;6.70;4.97;;;;;;;;;;4881590;29;20025;-45
2021/06/16 02:56:57;;;;;;;7.13;4.70;;;;;;;;;;4881599;29;20033;-45
2021/06/16 02:59:23;;;;;;;6.70;5.57;;;;;;;;;;4881208;29;20081;-45
2021/06/16 03:01:49;;;;;;;7.53;5.80;;;;;;;;;;4881284;29;20503;-45
2021/06/16 03:04:15;;;;;;;9.80;5.07;;;;;;;;;;4879901;29;20105;-45
2021/06/16 03:06:43;;;;;;;7.28;4.47;;;;;;;;;;4880859;29;20088;-45
2021/06/16 03:09:10;;;;;;;8.88;5.03;;;;;;;;;;4881004;29;20021;-44
2021/06/16 03:11:35;;;;;;;19.15;5.25;;;;;;;;;;4880966;29;20033;-46
2021/06/16 03:14:02;;;;;;;22.40;5.93;;;;;;;;;;4881338;29;20035;-46
2021/06/16 03:16:28;;;;;;;12.60;5.40;;;;;;;;;;4881024;29;20388;-45
2021/06/16 03:18:54;;;;;;;6.90;5.65;;;;;;;;;;4880786;29;20033;-45
2021/06/16 03:21:19;;;;;;;8.15;5.05;;;;;;;;;;4881087;29;20036;-45
2021/06/16 03:23:46;;;;;;;7.70;5.15;;;;;;;;;;4880941;29;20025;-45
2021/06/16 03:26:12;;;;;;;11.80;5.85;;;;;;;;;;4881004;29;20425;-45
2021/06/16 03:28:38;;;;;;;8.95;5.43;;;;;;;;;;4881118;29;20113;-45
2021/06/16 03:31:05;;;;;;;6.90;4.97;;;;;;;;;;4880631;29;20083;-45
2021/06/16 03:33:30;;;;;;;12.00;5.03;;;;;;;;;;4880869;29;20118;-45
2021/06/16 03:35:56;;;;;;;12.15;5.60;;;;;;;;;;4880642;29;20033;-45
2021/06/16 03:38:22;;;;;;;6.88;4.80;;;;;;;;;;4880322;29;20108;-45
2021/06/16 03:40:51;;;;;;;6.18;5.15;;;;;;;;;;4880757;29;20029;-45
2021/06/16 03:43:17;;;;;;;8.52;5.53;;;;;;;;;;4880380;29;20023;-44
2021/06/16 03:45:43;;;;;;;6.45;5.72;;;;;;;;;;4880537;29;20067;-44
2021/06/16 03:48:09;;;;;;;6.60;5.15;;;;;;;;;;4880350;29;20013;-45
2021/06/16 03:50:37;;;;;;;9.05;6.03;;;;;;;;;;4880402;29;20134;-44
2021/06/16 03:53:02;;;;;;;7.20;4.97;;;;;;;;;;4879048;29;20052;-44
2021/06/16 03:55:28;;;;;;;7.63;5.25;;;;;;;;;;4880341;29;20438;-45
2021/06/16 03:57:53;;;;;;;7.90;4.72;;;;;;;;;;4880225;29;20033;-45
2021/06/16 04:00:19;;;;;;;8.32;5.40;;;;;;;;;;4880122;29;20519;-46
2021/06/16 04:02:47;;;;;;;9.80;5.07;;;;;;;;;;4880151;29;20024;-44
2021/06/16 04:05:14;;;;;;;7.30;5.53;;;;;;;;;;4880083;29;20029;-45
2021/06/16 04:07:39;;;;;;;5.50;5.00;;;;;;;;;;4880082;29;20472;-45
2021/06/16 04:10:06;;;;;;;8.73;5.35;;;;;;;;;;4880225;29;20029;-45
2021/06/16 04:12:31;;;;;;;7.03;5.15;;;;;;;;;;4880273;29;20039;-45
2021/06/16 04:14:57;;;;;;;5.78;5.05;;;;;;;;;;4880221;29;20396;-46
2021/06/16 04:17:23;;;;;;;7.97;5.85;;;;;;;;;;4879594;29;20398;-48
2021/06/16 04:19:49;;;;;;;6.85;5.25;;;;;;;;;;4879178;29;20065;-46
2021/06/16 04:22:14;;;;;;;7.25;5.68;;;;;;;;;;4879771;29;20082;-46
2021/06/16 04:24:40;;;;;;;10.70;4.97;;;;;;;;;;4879671;29;20028;-45
2021/06/16 04:27:06;;;;;;;6.90;5.05;;;;;;;;;;4879710;29;20017;-46
2021/06/16 04:29:31;;;;;;;10.30;5.22;;;;;;;;;;4863083;29;20097;-45
2021/06/16 04:31:57;;;;;;;10.05;5.43;;;;;;;;;;4879504;29;20096;-45
2021/06/16 04:34:23;;;;;;;9.60;5.35;;;;;;;;;;4879584;29;20048;-45
2021/06/16 04:36:48;;;;;;;14.25;5.20;;;;;;;;;;4879600;29;20013;-46
2021/06/16 04:39:14;;;;;;;6.90;5.70;;;;;;;;;;4879141;29;20132;-45
2021/06/16 04:41:40;;;;;;;7.20;5.38;;;;;;;;;;4879505;29;20029;-45
2021/06/16 04:44:05;;;;;;;7.53;6.22;;;;;;;;;;4879582;29;20162;-45
2021/06/16 04:46:30;;;;;;;9.25;5.15;;;;;;;;;;4879329;29;20032;-45
2021/06/16 04:48:56;;;;;;;7.78;5.22;;;;;;;;;;4879414;29;20029;-46
2021/06/16 04:51:21;;;;;;;6.15;5.10;;;;;;;;;;4879126;29;20096;-46
2021/06/16 04:53:47;;;;;;;13.27;5.30;;;;;;;;;;4879558;29;20111;-45
2021/06/16 04:56:12;;;;;;;10.80;5.50;;;;;;;;;;4879132;29;20253;-46
2021/06/16 04:58:37;;;;;;;7.70;5.45;;;;;;;;;;4879324;29;20045;-45
2021/06/16 05:01:03;;;;;;;5.55;4.75;;;;;;;;;;4879389;29;20341;-45
2021/06/16 05:03:28;;;;;;;7.80;5.80;;;;;;;;;;4879046;29;20388;-45
2021/06/16 05:05:54;;;;;;;6.65;5.15;;;;;;;;;;4879103;29;20017;-45
2021/06/16 05:08:19;;;;;;;7.40;5.20;;;;;;;;;;4877793;29;20061;-44
2021/06/16 05:10:44;;;;;;;8.27;4.93;;;;;;;;;;4878977;29;20028;-44
2021/06/16 05:13:10;;;;;;;8.32;5.45;;;;;;;;;;4879153;29;20116;-44
2021/06/16 05:15:35;;;;;;;8.75;4.93;;;;;;;;;;4879231;29;20021;-44
2021/06/16 05:18:03;;;;;;;7.82;5.25;;;;;;;;;;4879104;29;20049;-44
2021/06/16 05:20:28;;;;;;;7.55;5.35;;;;;;;;;;4878947;29;20024;-45
2021/06/16 05:22:56;;;;;;;6.35;5.38;;;;;;;;;;4878871;29;20053;-45
2021/06/16 05:25:22;;;;;;;7.18;4.90;;;;;;;;;;4879061;29;20033;-45
2021/06/16 05:27:47;;;;;;;6.18;4.50;;;;;;;;;;4878710;29;20441;-45
2021/06/16 05:30:13;;;;;;;5.88;4.55;;;;;;;;;;4878580;29;20032;-45
2021/06/16 05:32:39;;;;;;;10.35;5.28;;;;;;;;;;4878778;29;20033;-45
2021/06/16 05:35:05;;;;;;;5.03;4.53;;;;;;;;;;4878611;29;20028;-45
2021/06/16 05:37:30;;;;;;;9.85;5.18;;;;;;;;;;4878408;29;20152;-46
2021/06/16 05:39:55;;;;;;;9.27;5.22;;;;;;;;;;4878571;29;20119;-45
2021/06/16 05:42:21;;;;;;;7.15;5.22;;;;;;;;;;4878482;29;20067;-45
2021/06/16 05:44:46;;;;;;;11.05;4.95;;;;;;;;;;4878654;29;20017;-44
2021/06/16 05:47:12;;;;;;;5.97;4.75;;;;;;;;;;4878507;29;20056;-45
2021/06/16 05:49:37;;;;;;;7.50;5.60;;;;;;;;;;4877319;29;20469;-45
2021/06/16 05:52:03;;;;;;;6.60;4.97;;;;;;;;;;4878793;29;20029;-46
2021/06/16 05:54:28;;;;;;;6.30;4.15;;;;;;;;;;4877204;29;20025;-45
2021/06/16 05:56:53;;;;;;;8.15;4.72;;;;;;;;;;4878488;29;20503;-46
2021/06/16 05:59:19;;;;;;;5.97;5.07;;;;;;;;;;4878447;29;20115;-45
2021/06/16 06:01:44;;;;;;;5.75;4.88;;;;;;;;;;4878691;29;20036;-45
2021/06/16 06:04:09;;;;;;;9.43;5.93;;;;;;;;;;4878412;29;20388;-46
2021/06/16 06:06:35;;;;;;;5.53;4.95;;;;;;;;;;4878400;29;20485;-45
2021/06/16 06:09:01;;;;;;;7.10;5.07;;;;;;;;;;4878488;29;20014;-45
2021/06/16 06:11:26;;;;;;;6.95;5.47;;;;;;;;;;4878445;29;20480;-45
2021/06/16 06:13:52;;;;;;;7.07;5.50;;;;;;;;;;4878428;29;20032;-45
2021/06/16 06:16:17;;;;;;;7.00;5.22;;;;;;;;;;4878348;29;20041;-45
2021/06/16 06:18:43;;;;;;;7.10;5.05;;;;;;;;;;4878237;29;20072;-45
2021/06/16 06:21:08;;;;;;;6.78;5.00;;;;;;;;;;4878202;29;20077;-46
2021/06/16 06:23:34;;;;;;;7.20;5.05;;;;;;;;;;4878395;29;20029;-45
2021/06/16 06:25:59;;;;;;;6.85;6.05;;;;;;;;;;4878242;29;20410;-45
2021/06/16 06:28:25;;;;;;;9.45;5.05;;;;;;;;;;4878244;29;20021;-45
2021/06/16 06:30:50;;;;;;;7.55;4.68;;;;;;;;;;4878423;29;20037;-45
2021/06/16 06:33:15;;;;;;;9.05;5.00;;;;;;;;;;4878107;29;20100;-45
2021/06/16 06:35:41;;;;;;;8.20;5.78;;;;;;;;;;4878289;29;20037;-45
2021/06/16 06:38:06;;;;;;;5.88;4.85;;;;;;;;;;4876726;29;20049;-45
2021/06/16 06:40:32;;;;;;;9.55;5.05;;;;;;;;;;4878352;29;20033;-45
2021/06/16 06:42:57;;;;;;;7.97;5.55;;;;;;;;;;4881230;29;20032;-45
2021/06/16 06:45:23;;;;;;;6.18;4.88;;;;;;;;;;4881622;29;20033;-45
2021/06/16 06:47:48;;;;;;;7.85;5.72;;;;;;;;;;4881819;29;20032;-46
2021/06/16 06:50:16;;;;;;;8.88;5.00;;;;;;;;;;4881336;29;20520;-45
2021/06/16 06:52:43;;;;;;;11.57;5.53;;;;;;;;;;4881407;29;20032;-45
2021/06/16 06:55:09;;;;;;;9.77;5.68;;;;;;;;;;4881270;29;20085;-45
2021/06/16 06:57:34;;;;;;;6.93;5.00;;;;;;;;;;4881516;29;20036;-45
2021/06/16 07:00:00;;;;;;;6.53;5.32;;;;;;;;;;4881510;29;20480;-45
2021/06/16 07:02:25;;;;;;;5.88;5.00;;;;;;;;;;4881386;29;20044;-45
2021/06/16 07:04:51;;;;;;;10.85;4.82;;;;;;;;;;4881259;29;20389;-44
2021/06/16 07:07:16;;;;;;;8.25;5.13;;;;;;;;;;4881006;29;20060;-45
2021/06/16 07:09:41;;;;;;;10.50;4.90;;;;;;;;;;4881077;29;20021;-45
2021/06/16 07:12:08;;;;;;;6.07;4.88;;;;;;;;;;4881101;29;20021;-45
2021/06/16 07:14:36;;;;;;;6.80;5.60;;;;;;;;;;4880995;29;20021;-45
2021/06/16 07:17:02;;;;;;;6.25;4.80;;;;;;;;;;4881049;29;20033;-46
2021/06/16 07:19:27;;;;;;;4.43;3.67;;;;;;;;;;4880872;29;20876;-45
2021/06/16 07:21:52;;;;;;;7.70;5.18;;;;;;;;;;4881097;29;20384;-46
2021/06/16 07:24:18;;;;;;;10.10;4.35;;;;;;;;;;4881092;29;20033;-45
2021/06/16 07:26:44;;;;;;;6.07;4.68;;;;;;;;;;4881034;29;20015;-45
2021/06/16 07:29:09;;;;;;;5.75;4.35;;;;;;;;;;4880691;29;20499;-45
2021/06/16 07:31:34;;;;;;;6.53;4.68;;;;;;;;;;4880942;29;20029;-45
2021/06/16 07:34:00;;;;;;;6.82;4.45;;;;;;;;;;4881009;29;20400;-46
2021/06/16 07:36:25;;;;;;;12.48;5.38;;;;;;;;;;4879636;29;20477;-45
2021/06/16 07:38:51;;;;;;;5.78;4.65;;;;;;;;;;4880399;29;20084;-45
2021/06/16 07:41:16;;;;;;;5.15;4.38;;;;;;;;;;4880686;29;20029;-46
2021/06/16 07:43:42;;;;;;;5.95;4.72;;;;;;;;;;4879255;29;20116;-45
2021/06/16 07:46:07;;;;;;;10.13;4.53;;;;;;;;;;4880590;29;20500;-45
2021/06/16 07:48:32;;;;;;;6.22;4.80;;;;;;;;;;4880691;29;20039;-45
2021/06/16 07:50:58;;;;;;;5.90;4.80;;;;;;;;;;4880289;29;20052;-45
2021/06/16 07:53:23;;;;;;;5.38;4.47;;;;;;;;;;4877914;29;20067;-45
2021/06/16 07:55:48;;;;;;;11.52;5.13;;;;;;;;;;4880397;29;20099;-45
2021/06/16 07:58:14;;;;;;;6.43;4.18;;;;;;;;;;4880373;29;20037;-45
2021/06/16 08:00:39;;;;;;;4.75;4.10;;;;;;;;;;4880501;29;20021;-45
2021/06/16 08:03:05;;;;;;;5.05;4.35;;;;;;;;;;4880507;29;20536;-45
2021/06/16 08:05:30;;;;;;;5.97;4.88;;;;;;;;;;4879964;29;20025;-46
2021/06/16 08:07:55;;;;;;;6.50;4.85;;;;;;;;;;4880103;29;20111;-45
2021/06/16 08:10:21;;;;;;;7.00;4.13;;;;;;;;;;4879956;29;20484;-45
2021/06/16 08:12:46;;;;;;;8.82;4.13;;;;;;;;;;4879988;29;20471;-46
2021/06/16 08:15:12;;;;;;;6.47;5.35;;;;;;;;;;4879921;29;20025;-47
2021/06/16 08:17:37;;;;;;;9.25;4.38;;;;;;;;;;4880096;29;20056;-45
2021/06/16 08:20:06;;;;;;;8.80;4.32;;;;;;;;;;4880062;29;20100;-45
2021/06/16 08:22:33;;;;;;;7.60;4.10;;;;;;;;;;4879971;29;20033;-45
2021/06/16 08:25:00;;;;;;;8.55;4.90;;;;;;;;;;4879962;29;20036;-45
2021/06/16 08:27:26;;;;;;;11.32;4.53;;;;;;;;;;4879964;29;20033;-46
2021/06/16 08:29:51;;;;;;;5.10;4.35;;;;;;;;;;4879715;29;20025;-45
2021/06/16 08:32:17;;;;;;;6.65;3.72;;;;;;;;;;4879536;29;20433;-46
2021/06/16 08:34:42;;;;;;;8.73;4.30;;;;;;;;;;4879668;29;20025;-44
2021/06/16 08:37:08;;;;;;;6.13;3.88;;;;;;;;;;4879655;29;20033;-46
2021/06/16 08:39:33;;;;;;;5.13;3.90;;;;;;;;;;4879662;29;20063;-45
2021/06/16 08:41:59;;;;;;;6.18;4.05;;;;;;;;;;4879720;29;20111;-45
2021/06/16 08:44:25;;;;;;;4.63;3.58;;;;;;;;;;4879414;29;20033;-44
2021/06/16 08:46:50;;;;;;;5.80;3.95;;;;;;;;;;4879698;29;20036;-45
2021/06/16 08:49:15;;;;;;;4.60;4.20;;;;;;;;;;4879248;29;20021;-46
2021/06/16 08:51:41;;;;;;;5.43;3.85;;;;;;;;;;4879316;29;20124;-45
2021/06/16 08:54:07;;;;;;;5.47;4.25;;;;;;;;;;4879225;29;20025;-45
2021/06/16 08:56:33;;;;;;;5.82;4.28;;;;;;;;;;4879158;29;20056;-45
2021/06/16 08:58:58;;;;;;;4.95;4.40;;;;;;;;;;4879208;29;20068;-46
2021/06/16 09:01:24;;;;;;;5.15;4.32;;;;;;;;;;4879240;29;20090;-45
2021/06/16 09:03:49;;;;;;;6.28;4.00;;;;;;;;;;4878989;29;20056;-45
2021/06/16 09:06:15;;;;;;;5.25;4.05;;;;;;;;;;4877767;29;20036;-46
2021/06/16 09:08:55;;;;;;;6.50;3.90;;;;;;;;;;4879247;29;20059;-46
2021/06/16 09:11:21;;;;;;;3.72;3.30;;;;;;;;;;4878916;29;20488;-44
2021/06/16 09:13:47;;;;;;;6.28;3.40;;;;;;;;;;4878922;29;20094;-44
2021/06/16 09:16:28;;;;;;;3.80;3.45;;;;;;;;;;4878879;29;20063;-45
2021/06/16 09:18:54;;;;;;;4.63;3.40;;;;;;;;;;4878854;29;20092;-44
2021/06/16 09:21:35;;;;;;;5.97;3.47;;;;;;;;;;4878828;29;20044;-45
2021/06/16 09:24:00;;;;;;;3.88;3.53;;;;;;;;;;4879123;29;20089;-45
2021/06/16 09:26:29;;;;;;;5.13;3.38;;;;;;;;;;4878796;29;20017;-45
2021/06/16 09:28:54;;;;;;;8.30;4.05;;;;;;;;;;4878688;29;20040;-45
2021/06/16 09:31:21;;;;;;;4.22;3.17;;;;;;;;;;4878646;29;20116;-45
2021/06/16 09:33:47;;;;;;;4.13;3.50;;;;;;;;;;4877457;29;20037;-45
2021/06/16 09:36:16;;;;;;;3.67;3.10;;;;;;;;;;4878666;29;20024;-45
2021/06/16 09:38:46;;;;;;;5.18;3.40;;;;;;;;;;4878641;29;20088;-46
2021/06/16 09:41:12;;;;;;;5.00;3.92;;;;;;;;;;4878601;29;20057;-44
2021/06/16 09:43:39;;;;;;;8.35;3.50;;;;;;;;;;4878868;29;20085;-45
2021/06/16 09:46:05;;;;;;;4.95;3.50;;;;;;;;;;4878642;29;20029;-45
2021/06/16 09:48:34;;;;;;;5.22;3.53;;;;;;;;;;4878639;29;20044;-44
2021/06/16 09:51:10;;;;;;;8.65;3.55;;;;;;;;;;4878561;29;20027;-46
2021/06/16 09:53:54;;;;;;;5.03;3.38;;;;;;;;;;4878872;29;20037;-44
2021/06/16 09:56:20;;;;;;;4.85;3.42;;;;;;;;;;4878457;29;20057;-44
2021/06/16 09:58:45;;;;;;;4.18;2.85;;;;;;;;;;4877290;29;20504;-45
2021/06/16 10:01:11;;;;;;;6.47;3.50;;;;;;;;;;4878388;29;20073;-46
2021/06/16 10:03:36;;;;;;;7.53;3.42;;;;;;;;;;4878765;29;20103;-44
2021/06/16 10:06:08;;;;;;;6.60;3.17;;;;;;;;;;4878427;29;20037;-45
2021/06/16 10:08:43;;;;;;;4.93;3.53;;;;;;;;;;4878389;29;20059;-44
2021/06/16 10:11:11;;;;;;;6.15;3.65;;;;;;;;;;4877210;29;20092;-45
2021/06/16 10:13:36;;;;;;;5.97;3.65;;;;;;;;;;4877073;29;20021;-44
2021/06/16 10:16:02;;;;;;;5.93;3.17;;;;;;;;;;4878795;29;20376;-45
2021/06/16 10:18:28;;;;;;;6.93;3.33;;;;;;;;;;4881970;29;20035;-45
2021/06/16 10:20:55;;;;;;;5.00;3.60;;;;;;;;;;4882176;29;20033;-44
2021/06/16 10:23:21;;;;;;;4.65;3.33;;;;;;;;;;4881942;29;20032;-44
2021/06/16 10:25:46;;;;;;;3.33;2.72;;;;;;;;;;4881835;29;20066;-45
2021/06/16 10:28:15;;;;;;;8.02;3.30;;;;;;;;;;4881779;29;20055;-44
2021/06/16 10:30:42;;;;;;;5.70;3.03;;;;;;;;;;4882089;29;20029;-44
2021/06/16 10:33:43;;;;;;;6.65;3.08;;;;;;;;;;4881791;29;20025;-45
2021/06/16 10:36:18;;;;;;;5.53;3.95;;;;;;;;;;4898196;29;20031;-45
2021/06/16 10:38:59;;;;;;;5.47;3.63;;;;;;;;;;4883798;29;20386;-44
2021/06/16 10:41:37;;;;;;;4.72;3.35;;;;;;;;;;4881488;29;20041;-44
2021/06/16 10:44:09;;;;;;;7.38;3.67;;;;;;;;;;4881822;29;20451;-44
2021/06/16 10:46:53;;;;;;;5.10;3.50;;;;;;;;;;4881807;29;20380;-45
2021/06/16 10:49:39;;;;;;;7.13;3.92;;;;;;;;;;4881375;29;20028;-44
2021/06/16 10:52:05;;;;;;;5.38;4.28;;;;;;;;;;4881709;29;20040;-45
2021/06/16 10:54:34;;;;;;;5.38;3.25;;;;;;;;;;4880028;29;20033;-44
2021/06/16 10:57:12;;;;;;;3.90;3.50;;;;;;;;;;4881360;29;20033;-44
2021/06/16 10:59:43;;;;;;;5.10;3.90;;;;;;;;;;4881196;29;20041;-44
2021/06/16 11:02:13;;;;;;;6.93;3.80;;;;;;;;;;4881318;29;20040;-45
2021/06/16 11:04:39;;;;;;;6.88;3.42;;;;;;;;;;4881479;29;20033;-44
2021/06/16 11:07:24;;;;;;;6.68;3.83;;;;;;;;;;4880018;29;20035;-44
2021/06/16 11:09:51;;;;;;;6.90;3.38;;;;;;;;;;4879723;29;20037;-44
2021/06/16 11:12:26;;;;;;;4.38;3.60;;;;;;;;;;4881338;29;20024;-44
2021/06/16 11:14:52;;;;;;;8.32;3.83;;;;;;;;;;4881354;29;20033;-44
2021/06/16 11:17:23;;;;;;;4.78;3.33;;;;;;;;;;4880850;29;20452;-44
2021/06/16 11:19:55;;;;;;;5.60;3.80;;;;;;;;;;4880896;29;20081;-44
2021/06/16 11:22:23;;;;;;;4.20;3.80;;;;;;;;;;4880943;29;20025;-44
2021/06/16 11:25:04;;;;;;;6.65;3.50;;;;;;;;;;4881042;29;20112;-44
2021/06/16 11:27:48;;;;;;;3.70;3.30;;;;;;;;;;4879367;29;20033;-44
2021/06/16 11:30:14;;;;;;;4.00;3.50;;;;;;;;;;4880647;29;20037;-44
2021/06/16 11:32:40;;;;;;;4.10;3.42;;;;;;;;;;4880773;29;20028;-44
2021/06/16 11:35:05;;;;;;;6.00;3.70;;;;;;;;;;4879473;29;20036;-47
2021/06/16 11:37:49;;;;;;;5.07;3.63;;;;;;;;;;4880421;29;20113;-45
2021/06/16 11:40:17;;;;;;;3.40;2.80;;;;;;;;;;4880778;29;20044;-44
2021/06/16 11:42:43;;;;;;;4.57;3.83;;;;;;;;;;4880575;29;20472;-44
2021/06/16 11:45:08;;;;;;;8.45;3.63;;;;;;;;;;4880429;29;20033;-45
2021/06/16 11:47:34;;;;;;;4.00;3.38;;;;;;;;;;4880427;29;20025;-44
2021/06/16 11:50:00;;;;;;;3.72;3.40;;;;;;;;;;4880526;29;20040;-45
2021/06/16 11:52:25;;;;;;;7.07;3.70;;;;;;;;;;4880243;29;20365;-45
2021/06/16 11:54:50;;;;;;;4.50;3.33;;;;;;;;;;4879278;29;20168;-45
2021/06/16 11:57:18;;;;;;;4.20;3.22;;;;;;;;;;4880405;29;20029;-44
2021/06/16 11:59:46;;;;;;;5.75;3.63;;;;;;;;;;4880200;29;20048;-45
2021/06/16 12:02:20;;;;;;;3.97;3.58;;;;;;;;;;4880274;29;20466;-45
2021/06/16 12:04:46;;;;;;;5.18;2.92;;;;;;;;;;4879101;29;20091;-44
2021/06/16 12:07:11;;;;;;;4.13;3.70;;;;;;;;;;4880190;29;20476;-45
2021/06/16 12:09:46;;;;;;;4.03;3.25;;;;;;;;;;4879973;29;20740;-45
2021/06/16 12:12:11;;;;;;;5.55;3.63;;;;;;;;;;4880089;29;20132;-44
2021/06/16 12:14:37;;;;;;;6.25;3.70;;;;;;;;;;4879900;29;20100;-45
2021/06/16 12:17:03;;;;;;;6.30;3.63;;;;;;;;;;4880030;29;20480;-44
2021/06/16 12:19:32;;;;;;;3.70;3.40;;;;;;;;;;4880028;29;20025;-45
2021/06/16 12:22:17;;;;;;;3.85;3.47;;;;;;;;;;4879871;29;20033;-45
2021/06/16 12:24:45;;;;;;;7.47;3.47;;;;;;;;;;4878661;29;20043;-45
2021/06/16 12:27:13;;;;;;;6.80;3.60;;;;;;;;;;4880011;29;20437;-44
2021/06/16 12:29:46;;;;;;;4.72;3.35;;;;;;;;;;4880010;29;20056;-45
2021/06/16 12:32:13;;;;;;;3.72;3.20;;;;;;;;;;4879945;29;20037;-44
2021/06/16 12:34:55;;;;;;;4.30;3.13;;;;;;;;;;4879655;29;20048;-43
2021/06/16 12:37:21;;;;;;;4.82;3.67;;;;;;;;;;4879363;29;20044;-45
2021/06/16 12:39:52;;;;;;;5.10;3.55;;;;;;;;;;4879012;29;20037;-45
2021/06/16 12:42:17;;;;;;;5.47;3.28;;;;;;;;;;4879338;29;20045;-46
2021/06/16 12:44:44;;;;;;;4.80;2.88;;;;;;;;;;4879492;29;20021;-45
2021/06/16 12:47:10;;;;;;;6.93;3.92;;;;;;;;;;4879500;29;20436;-45
2021/06/16 12:49:49;;;;;;;7.38;3.47;;;;;;;;;;4879483;29;20077;-45
2021/06/16 12:52:15;;;;;;;5.38;3.58;;;;;;;;;;4879249;29;20043;-44
2021/06/16 12:54:45;;;;;;;7.20;2.97;;;;;;;;;;4879289;29;20024;-44
2021/06/16 12:57:12;;;;;;;5.00;3.22;;;;;;;;;;4879172;29;20093;-45
2021/06/16 12:59:38;;;;;;;4.10;3.13;;;;;;;;;;4877843;29;20089;-45
2021/06/16 13:02:05;;;;;;;4.20;3.78;;;;;;;;;;4879492;29;20061;-44
2021/06/16 13:04:41;;;;;;;5.68;3.78;;;;;;;;;;4878980;29;20025;-45
2021/06/16 13:07:06;;;;;;;4.95;3.22;;;;;;;;;;4879105;29;20033;-45
2021/06/16 13:09:31;;;;;;;3.53;3.03;;;;;;;;;;4879182;29;20363;-45
2021/06/16 13:12:02;;;;;;;4.18;3.38;;;;;;;;;;4877837;29;20484;-45
2021/06/16 13:14:32;;;;;;;7.10;3.38;;;;;;;;;;4879209;29;20059;-45
2021/06/16 13:16:57;;;;;;;3.50;2.78;;;;;;;;;;4879170;29;20440;-45
2021/06/16 13:19:22;;;;;;;9.15;3.15;;;;;;;;;;4877561;29;20068;-45
2021/06/16 13:22:04;;;;;;;8.98;3.70;;;;;;;;;;4877987;29;20033;-45
2021/06/16 13:24:32;;;;;;;3.88;3.47;;;;;;;;;;4878839;29;20036;-45
2021/06/16 13:27:05;;;;;;;8.35;3.78;;;;;;;;;;4878831;29;20017;-45
2021/06/16 13:29:32;;;;;;;2.83;2.63;;;;;;;;;;4879013;29;20029;-45
2021/06/16 13:31:57;;;;;;;5.28;3.33;;;;;;;;;;4878682;29;20441;-45
2021/06/16 13:34:23;;;;;;;6.65;2.65;;;;;;;;;;4877818;29;20108;-47
2021/06/16 13:36:48;;;;;;;3.92;3.00;;;;;;;;;;4878812;29;20021;-45
2021/06/16 13:39:14;;;;;;;4.05;3.30;;;;;;;;;;4878411;29;20049;-44
2021/06/16 13:41:39;;;;;;;3.92;2.60;;;;;;;;;;4877534;29;20033;-45
2021/06/16 13:44:04;;;;;;;2.78;2.25;;;;;;;;;;4878626;29;20033;-45
2021/06/16 13:46:30;;;;;;;6.57;3.20;;;;;;;;;;4878772;29;20021;-45
2021/06/16 13:48:55;;;;;;;3.92;3.10;;;;;;;;;;4878693;29;20069;-44
2021/06/16 13:51:21;;;;;;;3.00;2.33;;;;;;;;;;4880753;29;20060;-45
2021/06/16 13:53:46;;;;;;;3.22;2.50;;;;;;;;;;4882521;29;20037;-45
2021/06/16 13:56:12;;;;;;;3.63;2.75;;;;;;;;;;4882738;29;20025;-45
2021/06/16 13:58:38;;;;;;;4.07;2.53;;;;;;;;;;4882268;29;20041;-45
2021/06/16 14:01:03;;;;;;;4.45;2.58;;;;;;;;;;4882598;29;20021;-45
2021/06/16 14:03:28;;;;;;;3.13;2.38;;;;;;;;;;4882508;29;20401;-44
2021/06/16 14:05:54;;;;;;;3.25;2.10;;;;;;;;;;4882290;29;20013;-44
2021/06/16 14:08:20;;;;;;;3.92;2.38;;;;;;;;;;4882398;29;20068;-44
2021/06/16 14:10:45;;;;;;;4.00;2.30;;;;;;;;;;4882449;29;20021;-45
2021/06/16 14:13:11;;;;;;;2.83;2.10;;;;;;;;;;4882567;29;20064;-45
2021/06/16 14:15:36;;;;;;;2.33;2.13;;;;;;;;;;4882015;29;20449;-45
2021/06/16 14:18:03;;;;;;;1.88;1.73;;;;;;;;;;4880814;29;20048;-45
2021/06/16 14:20:28;;;;;;;4.07;2.05;;;;;;;;;;4881862;29;20460;-45
2021/06/16 14:22:54;;;;;;;4.20;2.47;;;;;;;;;;4881966;29;20036;-45
2021/06/16 14:25:19;;;;;;;4.95;2.58;;;;;;;;;;4881918;29;20429;-45
2021/06/16 14:27:45;;;;;;;2.58;1.98;;;;;;;;;;4881911;29;20040;-46
2021/06/16 14:30:12;;;;;;;3.75;1.85;;;;;;;;;;4881902;29;20104;-45
2021/06/16 14:32:37;;;;;;;3.13;2.33;;;;;;;;;;4881769;29;20036;-45
2021/06/16 14:35:04;;;;;;;3.35;2.97;;;;;;;;;;4881739;29;20025;-45
2021/06/16 14:37:29;;;;;;;2.83;1.95;;;;;;;;;;4881497;29;20045;-45
2021/06/16 14:39:55;;;;;;;1.83;1.63;;;;;;;;;;4881747;29;20384;-45